sensor_id;sensor_type;location;lat;lon;timestamp;pressure;altitude;pressure_sealevel;temperature;humidity
46614;BME280;32338;50.430;6.806;2022-12-07T00:00:08;65395.91;;;-0.21;100.00
46614;BME280;32338;50.430;6.806;2022-12-07T00:02:35;65390.31;;;-0.26;100.00
46614;BME280;32338;50.430;6.806;2022-12-07T00:05:04;65387.19;;;-0.27;100.00
46614;BME280;32338;50.430;6.806;2022-12-07T00:07:30;65395.47;;;-0.26;100.00
46614;BME280;32338;50.430;6.806;2022-12-07T00:09:57;65389.22;;;-0.27;100.00
46614;BME280;32338;50.430;6.806;2022-12-07T00:12:24;65391.44;;;-0.25;100.00
46614;BME280;32338;50.430;6.806;2022-12-07T00:14:50;65394.44;;;-0.20;100.00
46614;BME280;32338;50.430;6.806;2022-12-07T00:17:17;65403.50;;;-0.17;100.00
46614;BME280;32338;50.430;6.806;2022-12-07T00:19:43;65394.22;;;-0.23;100.00
46614;BME280;32338;50.430;6.806;2022-12-07T00:22:11;65397.56;;;-0.20;100.00
46614;BME280;32338;50.430;6.806;2022-12-07T00:24:38;65399.25;;;-0.18;100.00
46614;BME280;32338;50.430;6.806;2022-12-07T00:27:05;65399.94;;;-0.22;100.00
46614;BME280;32338;50.430;6.806;2022-12-07T00:29:31;65392.56;;;-0.24;100.00
46614;BME280;32338;50.430;6.806;2022-12-07T00:31:58;65399.38;;;-0.23;100.00
46614;BME280;32338;50.430;6.806;2022-12-07T00:34:24;65397.00;;;-0.20;100.00
46614;BME280;32338;50.430;6.806;2022-12-07T00:36:51;65399.03;;;-0.21;100.00
46614;BME280;32338;50.430;6.806;2022-12-07T00:39:19;65396.66;;;-0.18;100.00
46614;BME280;32338;50.430;6.806;2022-12-07T00:41:46;65401.81;;;-0.18;100.00
46614;BME280;32338;50.430;6.806;2022-12-07T00:44:13;65404.47;;;-0.11;100.00
46614;BME280;32338;50.430;6.806;2022-12-07T00:46:39;65400.69;;;-0.19;100.00
46614;BME280;32338;50.430;6.806;2022-12-07T00:49:06;65398.69;;;-0.19;100.00
46614;BME280;32338;50.430;6.806;2022-12-07T00:51:33;65393.88;;;-0.21;100.00
46614;BME280;32338;50.430;6.806;2022-12-07T00:53:59;65400.69;;;-0.19;100.00
46614;BME280;32338;50.430;6.806;2022-12-07T00:56:28;65395.22;;;-0.17;100.00
46614;BME280;32338;50.430;6.806;2022-12-07T00:58:57;65401.28;;;-0.19;100.00
46614;BME280;32338;50.430;6.806;2022-12-07T01:01:24;65400.69;;;-0.19;100.00
46614;BME280;32338;50.430;6.806;2022-12-07T01:03:52;65390.75;;;-0.21;100.00
46614;BME280;32338;50.430;6.806;2022-12-07T01:06:20;65399.59;;;-0.20;100.00
46614;BME280;32338;50.430;6.806;2022-12-07T01:08:48;65403.50;;;-0.17;100.00
46614;BME280;32338;50.430;6.806;2022-12-07T01:11:17;65404.81;;;-0.13;100.00
46614;BME280;32338;50.430;6.806;2022-12-07T01:13:46;65404.28;;;-0.13;100.00
46614;BME280;32338;50.430;6.806;2022-12-07T01:16:15;65399.25;;;-0.18;100.00
46614;BME280;32338;50.430;6.806;2022-12-07T01:18:45;65392.75;;;-0.22;100.00
46614;BME280;32338;50.430;6.806;2022-12-07T01:21:13;65392.22;;;-0.22;100.00
46614;BME280;32338;50.430;6.806;2022-12-07T01:23:41;65393.66;;;-0.23;100.00
46614;BME280;32338;50.430;6.806;2022-12-07T01:26:11;65393.66;;;-0.23;100.00
46614;BME280;32338;50.430;6.806;2022-12-07T01:28:38;65396.47;;;-0.21;100.00
46614;BME280;32338;50.430;6.806;2022-12-07T01:31:08;65393.66;;;-0.23;100.00
46614;BME280;32338;50.430;6.806;2022-12-07T01:33:36;65392.56;;;-0.24;100.00
46614;BME280;32338;50.430;6.806;2022-12-07T01:36:03;65391.44;;;-0.25;100.00
46614;BME280;32338;50.430;6.806;2022-12-07T01:38:30;65389.75;;;-0.27;100.00
46614;BME280;32338;50.430;6.806;2022-12-07T01:40:57;65391.09;;;-0.23;100.00
46614;BME280;32338;50.430;6.806;2022-12-07T01:43:26;65393.13;;;-0.24;100.00
46614;BME280;32338;50.430;6.806;2022-12-07T01:45:53;65397.38;;;-0.22;100.00
46614;BME280;32338;50.430;6.806;2022-12-07T01:48:24;65398.69;;;-0.19;100.00
46614;BME280;32338;50.430;6.806;2022-12-07T01:50:53;65402.16;;;-0.20;100.00
46614;BME280;32338;50.430;6.806;2022-12-07T01:53:24;65400.38;;;-0.17;100.00
46614;BME280;32338;50.430;6.806;2022-12-07T01:55:53;65408.50;;;-0.12;100.00
46614;BME280;32338;50.430;6.806;2022-12-07T01:58:21;65406.28;;;-0.14;100.00
46614;BME280;32338;50.430;6.806;2022-12-07T02:00:48;65405.72;;;-0.14;100.00
46614;BME280;32338;50.430;6.806;2022-12-07T02:03:19;65400.78;;;-0.12;100.00
46614;BME280;32338;50.430;6.806;2022-12-07T02:05:50;65408.19;;;-0.10;100.00
46614;BME280;32338;50.430;6.806;2022-12-07T02:08:17;65409.28;;;-0.09;100.00
46614;BME280;32338;50.430;6.806;2022-12-07T02:10:44;65406.16;;;-0.09;100.00
46614;BME280;32338;50.430;6.806;2022-12-07T02:13:13;65416.88;;;-0.04;100.00
46614;BME280;32338;50.430;6.806;2022-12-07T02:16:00;65417.09;;;-0.02;100.00
46614;BME280;32338;50.430;6.806;2022-12-07T02:18:38;65415.97;;;-0.03;100.00
46614;BME280;32338;50.430;6.806;2022-12-07T02:21:11;65411.72;;;-0.04;100.00
46614;BME280;32338;50.430;6.806;2022-12-07T02:23:45;65420.78;;;-0.01;100.00
46614;BME280;32338;50.430;6.806;2022-12-07T02:29:20;65410.06;;;-0.06;100.00
46614;BME280;32338;50.430;6.806;2022-12-07T02:31:55;65419.66;;;-0.02;100.00
46614;BME280;32338;50.430;6.806;2022-12-07T02:34:33;65426.03;;;0.07;100.00
46614;BME280;32338;50.430;6.806;2022-12-07T02:37:03;65420.44;;;0.02;100.00
46614;BME280;32338;50.430;6.806;2022-12-07T02:39:41;65427.50;;;0.06;100.00
46614;BME280;32338;50.430;6.806;2022-12-07T02:42:14;65423.78;;;0.05;100.00
46614;BME280;32338;50.430;6.806;2022-12-07T02:44:44;65425.47;;;0.06;100.00
46614;BME280;32338;50.430;6.806;2022-12-07T02:47:14;65430.06;;;0.06;100.00
46614;BME280;32338;50.430;6.806;2022-12-07T02:49:42;65425.13;;;0.08;100.00
46614;BME280;32338;50.430;6.806;2022-12-07T02:52:09;65439.97;;;0.20;100.00
46614;BME280;32338;50.430;6.806;2022-12-07T02:54:36;65453.91;;;0.32;100.00
46614;BME280;32338;50.430;6.806;2022-12-07T02:57:11;65445.69;;;0.20;100.00
46614;BME280;32338;50.430;6.806;2022-12-07T02:59:53;65439.44;;;0.19;100.00
46614;BME280;32338;50.430;6.806;2022-12-07T03:02:31;65437.53;;;0.15;100.00
46614;BME280;32338;50.430;6.806;2022-12-07T03:05:12;65436.44;;;0.14;100.00
46614;BME280;32338;50.430;6.806;2022-12-07T03:07:47;65439.22;;;0.17;100.00
46614;BME280;32338;50.430;6.806;2022-12-07T03:10:21;65438.31;;;0.18;100.00
46614;BME280;32338;50.430;6.806;2022-12-07T03:12:57;65457.84;;;0.36;100.00
46614;BME280;32338;50.430;6.806;2022-12-07T03:15:34;65452.94;;;0.27;100.00
46614;BME280;32338;50.430;6.806;2022-12-07T03:18:04;65442.00;;;0.19;100.00
46614;BME280;32338;50.430;6.806;2022-12-07T03:20:33;65439.22;;;0.17;100.00
46614;BME280;32338;50.430;6.806;2022-12-07T03:23:03;65439.75;;;0.17;100.00
46614;BME280;32338;50.430;6.806;2022-12-07T03:25:31;65445.69;;;0.20;100.00
46614;BME280;32338;50.430;6.806;2022-12-07T03:28:03;65437.75;;;0.18;100.00
46614;BME280;32338;50.430;6.806;2022-12-07T03:30:36;65440.34;;;0.18;100.00
46614;BME280;32338;50.430;6.806;2022-12-07T03:33:08;65435.50;;;0.15;100.00
46614;BME280;32338;50.430;6.806;2022-12-07T03:35:39;65434.59;;;0.17;100.00
46614;BME280;32338;50.430;6.806;2022-12-07T03:38:13;65441.22;;;0.16;100.00
46614;BME280;32338;50.430;6.806;2022-12-07T03:40:45;65447.16;;;0.19;100.00
46614;BME280;32338;50.430;6.806;2022-12-07T03:43:15;65438.66;;;0.16;100.00
46614;BME280;32338;50.430;6.806;2022-12-07T03:45:49;65439.97;;;0.20;100.00
46614;BME280;32338;50.430;6.806;2022-12-07T03:48:23;65442.00;;;0.19;100.00
46614;BME280;32338;50.430;6.806;2022-12-07T03:50:55;65439.97;;;0.20;100.00
46614;BME280;32338;50.430;6.806;2022-12-07T03:53:30;65436.44;;;0.14;100.00
46614;BME280;32338;50.430;6.806;2022-12-07T03:56:00;65438.84;;;0.19;100.00
46614;BME280;32338;50.430;6.806;2022-12-07T03:58:29;65442.75;;;0.22;100.00
46614;BME280;32338;50.430;6.806;2022-12-07T04:00:58;65437.75;;;0.18;100.00
46614;BME280;32338;50.430;6.806;2022-12-07T04:03:24;65445.91;;;0.23;100.00
46614;BME280;32338;50.430;6.806;2022-12-07T04:05:51;65445.00;;;0.24;100.00
46614;BME280;32338;50.430;6.806;2022-12-07T04:08:18;65439.75;;;0.17;100.00
46614;BME280;32338;50.430;6.806;2022-12-07T04:10:44;65432.72;;;0.13;100.00
46614;BME280;32338;50.430;6.806;2022-12-07T04:13:11;65436.63;;;0.17;100.00
46614;BME280;32338;50.430;6.806;2022-12-07T04:15:37;65432.72;;;0.13;100.00
46614;BME280;32338;50.430;6.806;2022-12-07T04:18:05;65451.50;;;0.28;100.00
46614;BME280;32338;50.430;6.806;2022-12-07T04:20:32;65445.34;;;0.22;100.00
46614;BME280;32338;50.430;6.806;2022-12-07T04:22:59;65444.59;;;0.19;100.00
46614;BME280;32338;50.430;6.806;2022-12-07T04:25:26;65457.63;;;0.34;100.00
46614;BME280;32338;50.430;6.806;2022-12-07T04:27:52;65452.41;;;0.26;100.00
46614;BME280;32338;50.430;6.806;2022-12-07T04:30:19;65461.75;;;0.40;100.00
46614;BME280;32338;50.430;6.806;2022-12-07T04:32:45;65450.59;;;0.29;100.00
46614;BME280;32338;50.430;6.806;2022-12-07T04:35:13;65455.41;;;0.31;100.00
46614;BME280;32338;50.430;6.806;2022-12-07T04:37:40;65449.47;;;0.28;100.00
46614;BME280;32338;50.430;6.806;2022-12-07T04:40:08;65451.69;;;0.30;100.00
46614;BME280;32338;50.430;6.806;2022-12-07T04:42:36;65448.91;;;0.28;100.00
46614;BME280;32338;50.430;6.806;2022-12-07T04:45:03;65450.91;;;0.27;100.00
46614;BME280;32338;50.430;6.806;2022-12-07T04:47:30;65456.16;;;0.35;100.00
46614;BME280;32338;50.430;6.806;2022-12-07T04:49:56;65450.25;;;0.31;100.00
46614;BME280;32338;50.430;6.806;2022-12-07T04:52:24;65465.66;;;0.43;100.00
46614;BME280;32338;50.430;6.806;2022-12-07T04:54:51;65464.53;;;0.42;100.00
46614;BME280;32338;50.430;6.806;2022-12-07T04:57:18;65460.41;;;0.36;100.00
46614;BME280;32338;50.430;6.806;2022-12-07T04:59:44;65451.69;;;0.30;100.00
46614;BME280;32338;50.430;6.806;2022-12-07T05:02:11;65450.59;;;0.29;100.00
46614;BME280;32338;50.430;6.806;2022-12-07T05:04:37;65450.03;;;0.29;100.00
46614;BME280;32338;50.430;6.806;2022-12-07T05:07:04;65454.63;;;0.28;100.00
46614;BME280;32338;50.430;6.806;2022-12-07T05:09:32;65465.09;;;0.43;100.00
46614;BME280;32338;50.430;6.806;2022-12-07T05:11:59;65458.75;;;0.35;100.00
46614;BME280;32338;50.430;6.806;2022-12-07T05:14:25;65453.91;;;0.32;100.00
46614;BME280;32338;50.430;6.806;2022-12-07T05:16:52;65453.38;;;0.32;100.00
46614;BME280;32338;50.430;6.806;2022-12-07T05:19:19;65459.06;;;0.32;100.00
46614;BME280;32338;50.430;6.806;2022-12-07T05:21:46;65455.41;;;0.31;100.00
46614;BME280;32338;50.430;6.806;2022-12-07T05:24:14;65465.88;;;0.46;100.00
46614;BME280;32338;50.430;6.806;2022-12-07T05:26:42;65460.41;;;0.36;100.00
46614;BME280;32338;50.430;6.806;2022-12-07T05:29:10;65456.16;;;0.35;100.00
46614;BME280;32338;50.430;6.806;2022-12-07T05:31:37;65451.13;;;0.30;100.00
46614;BME280;32338;50.430;6.806;2022-12-07T05:34:04;65447.78;;;0.27;100.00
46614;BME280;32338;50.430;6.806;2022-12-07T05:36:31;65464.88;;;0.40;100.00
46614;BME280;32338;50.430;6.806;2022-12-07T05:38:57;65454.28;;;0.30;100.00
46614;BME280;32338;50.430;6.806;2022-12-07T05:41:24;65450.03;;;0.29;100.00
46614;BME280;32338;50.430;6.806;2022-12-07T05:44:15;65460.97;;;0.37;100.00
46614;BME280;32338;50.430;6.806;2022-12-07T05:46:41;65456.28;;;0.30;100.00
46614;BME280;32338;50.430;6.806;2022-12-07T05:49:08;65449.81;;;0.26;100.00
46614;BME280;32338;50.430;6.806;2022-12-07T05:51:35;65448.34;;;0.27;100.00
46614;BME280;32338;50.430;6.806;2022-12-07T05:54:01;65461.75;;;0.40;100.00
46614;BME280;32338;50.430;6.806;2022-12-07T05:56:28;65453.38;;;0.32;100.00
46614;BME280;32338;50.430;6.806;2022-12-07T05:58:54;65456.72;;;0.35;100.00
46614;BME280;32338;50.430;6.806;2022-12-07T06:01:41;65451.69;;;0.30;100.00
46614;BME280;32338;50.430;6.806;2022-12-07T06:04:08;65445.00;;;0.24;100.00
46614;BME280;32338;50.430;6.806;2022-12-07T06:06:34;65446.25;;;0.21;100.00
46614;BME280;32338;50.430;6.806;2022-12-07T06:09:01;65438.84;;;0.19;100.00
46614;BME280;32338;50.430;6.806;2022-12-07T06:11:28;65438.66;;;0.16;100.00
46614;BME280;32338;50.430;6.806;2022-12-07T06:14:12;65429.03;;;0.12;100.00
46614;BME280;32338;50.430;6.806;2022-12-07T06:16:38;65426.59;;;0.07;100.00
46614;BME280;32338;50.430;6.806;2022-12-07T06:19:06;65420.44;;;0.02;100.00
46614;BME280;32338;50.430;6.806;2022-12-07T06:21:33;65424.69;;;0.03;100.00
46614;BME280;32338;50.430;6.806;2022-12-07T06:23:59;65420.44;;;0.02;100.00
46614;BME280;32338;50.430;6.806;2022-12-07T06:26:27;65423.03;;;0.02;100.00
46614;BME280;32338;50.430;6.806;2022-12-07T06:28:53;65415.09;;;-0.01;100.00
46614;BME280;32338;50.430;6.806;2022-12-07T06:31:20;65423.59;;;0.02;100.00
46614;BME280;32338;50.430;6.806;2022-12-07T06:33:46;65425.03;;;0.01;100.00
46614;BME280;32338;50.430;6.806;2022-12-07T06:36:14;65418.44;;;0.02;100.00
46614;BME280;32338;50.430;6.806;2022-12-07T06:38:41;65427.81;;;0.04;100.00
46614;BME280;32338;50.430;6.806;2022-12-07T06:41:07;65430.50;;;0.11;100.00
46614;BME280;32338;50.430;6.806;2022-12-07T06:43:34;65431.19;;;0.07;100.00
46614;BME280;32338;50.430;6.806;2022-12-07T06:46:01;65428.72;;;0.02;100.00
46614;BME280;32338;50.430;6.806;2022-12-07T06:48:27;65421.38;;;0.00;100.00
46614;BME280;32338;50.430;6.806;2022-12-07T06:50:54;65412.63;;;-0.06;100.00
46614;BME280;32338;50.430;6.806;2022-12-07T06:53:22;65423.59;;;0.02;100.00
46614;BME280;32338;50.430;6.806;2022-12-07T06:55:49;65414.66;;;-0.06;100.00
46614;BME280;32338;50.430;6.806;2022-12-07T06:58:16;65408.50;;;-0.12;100.00
46614;BME280;32338;50.430;6.806;2022-12-07T07:00:43;65403.69;;;-0.14;100.00
46614;BME280;32338;50.430;6.806;2022-12-07T07:03:09;65403.84;;;-0.19;100.00
46614;BME280;32338;50.430;6.806;2022-12-07T07:05:36;65399.78;;;-0.18;100.00
46614;BME280;32338;50.430;6.806;2022-12-07T07:08:03;65396.66;;;-0.18;100.00
46614;BME280;32338;50.430;6.806;2022-12-07T07:10:31;65393.53;;;-0.19;100.00
46614;BME280;32338;50.430;6.806;2022-12-07T07:12:58;65403.50;;;-0.17;100.00
46614;BME280;32338;50.430;6.806;2022-12-07T07:15:24;65399.25;;;-0.18;100.00
46614;BME280;32338;50.430;6.806;2022-12-07T07:17:51;65401.28;;;-0.19;100.00
46614;BME280;32338;50.430;6.806;2022-12-07T07:20:18;65396.47;;;-0.21;100.00
46614;BME280;32338;50.430;6.806;2022-12-07T07:22:44;65393.53;;;-0.19;100.00
46614;BME280;32338;50.430;6.806;2022-12-07T07:25:11;65393.13;;;-0.24;100.00
46614;BME280;32338;50.430;6.806;2022-12-07T07:27:39;65391.44;;;-0.25;100.00
46614;BME280;32338;50.430;6.806;2022-12-07T07:30:07;65391.44;;;-0.25;100.00
46614;BME280;32338;50.430;6.806;2022-12-07T07:32:34;65391.44;;;-0.25;100.00
46614;BME280;32338;50.430;6.806;2022-12-07T07:35:01;65401.28;;;-0.19;100.00
46614;BME280;32338;50.430;6.806;2022-12-07T07:37:27;65404.94;;;-0.18;100.00
46614;BME280;32338;50.430;6.806;2022-12-07T07:39:54;65401.47;;;-0.16;100.00
46614;BME280;32338;50.430;6.806;2022-12-07T07:42:20;65403.16;;;-0.14;100.00
46614;BME280;32338;50.430;6.806;2022-12-07T07:44:48;65407.81;;;-0.08;100.00
46614;BME280;32338;50.430;6.806;2022-12-07T07:47:15;65411.09;;;-0.12;100.00
46614;BME280;32338;50.430;6.806;2022-12-07T07:49:42;65409.63;;;-0.11;100.00
46614;BME280;32338;50.430;6.806;2022-12-07T07:52:09;65418.34;;;-0.05;100.00
46614;BME280;32338;50.430;6.806;2022-12-07T07:54:36;65416.53;;;-0.02;100.00
46614;BME280;32338;50.430;6.806;2022-12-07T07:57:03;65415.09;;;-0.01;100.00
46614;BME280;32338;50.430;6.806;2022-12-07T07:59:29;65420.44;;;0.02;100.00
46614;BME280;32338;50.430;6.806;2022-12-07T08:01:57;65426.03;;;0.07;100.00
46614;BME280;32338;50.430;6.806;2022-12-07T08:04:24;65424.38;;;0.05;100.00
46614;BME280;32338;50.430;6.806;2022-12-07T08:06:51;65435.09;;;0.10;100.00
46614;BME280;32338;50.430;6.806;2022-12-07T08:09:18;65436.44;;;0.14;100.00
46614;BME280;32338;50.430;6.806;2022-12-07T08:11:44;65433.28;;;0.13;100.00
46614;BME280;32338;50.430;6.806;2022-12-07T08:14:11;65432.38;;;0.15;100.00
46614;BME280;32338;50.430;6.806;2022-12-07T08:16:40;65443.53;;;0.25;100.00
46614;BME280;32338;50.430;6.806;2022-12-07T08:19:08;65446.47;;;0.23;100.00
46614;BME280;32338;50.430;6.806;2022-12-07T08:21:34;65445.13;;;0.20;100.00
46614;BME280;32338;50.430;6.806;2022-12-07T08:24:01;65439.44;;;0.19;100.00
46614;BME280;32338;50.430;6.806;2022-12-07T08:26:28;65432.38;;;0.15;100.00
46614;BME280;32338;50.430;6.806;2022-12-07T08:28:54;65434.72;;;0.12;100.00
46614;BME280;32338;50.430;6.806;2022-12-07T08:31:21;65432.16;;;0.12;100.00
46614;BME280;32338;50.430;6.806;2022-12-07T08:33:48;65429.38;;;0.10;100.00
46614;BME280;32338;50.430;6.806;2022-12-07T08:36:16;65424.38;;;0.05;100.00
46614;BME280;32338;50.430;6.806;2022-12-07T08:38:43;65422.66;;;0.04;100.00
46614;BME280;32338;50.430;6.806;2022-12-07T08:41:10;65424.91;;;0.06;100.00
46614;BME280;32338;50.430;6.806;2022-12-07T08:43:37;65436.06;;;0.16;100.00
46614;BME280;32338;50.430;6.806;2022-12-07T08:46:08;65450.03;;;0.29;100.00
46614;BME280;32338;50.430;6.806;2022-12-07T08:48:38;65461.19;;;0.39;100.00
46614;BME280;32338;50.430;6.806;2022-12-07T08:51:06;65460.63;;;0.39;100.00
46614;BME280;32338;50.430;6.806;2022-12-07T08:53:37;65464.53;;;0.42;100.00
46614;BME280;32338;50.430;6.806;2022-12-07T08:56:06;65481.84;;;0.58;100.00
46614;BME280;32338;50.430;6.806;2022-12-07T08:58:35;65486.31;;;0.62;100.00
46614;BME280;32338;50.430;6.806;2022-12-07T09:01:05;65479.25;;;0.58;100.00
46614;BME280;32338;50.430;6.806;2022-12-07T09:03:31;65477.94;;;0.55;100.00
46614;BME280;32338;50.430;6.806;2022-12-07T09:06:00;65475.94;;;0.55;100.00
46614;BME280;32338;50.430;6.806;2022-12-07T09:08:33;65488.53;;;0.64;100.00
46614;BME280;32338;50.430;6.806;2022-12-07T09:11:02;65492.44;;;0.68;100.00
46614;BME280;32338;50.430;6.806;2022-12-07T09:13:29;65480.38;;;0.59;100.00
46614;BME280;32338;50.430;6.806;2022-12-07T09:15:55;65481.28;;;0.58;100.00
46614;BME280;32338;50.430;6.806;2022-12-07T09:18:26;65486.31;;;0.62;100.00
46614;BME280;32338;50.430;6.806;2022-12-07T09:20:52;65498.25;;;0.76;100.00
46614;BME280;32338;50.430;6.806;2022-12-07T09:23:19;65504.75;;;0.79;100.00
46614;BME280;32338;50.430;6.806;2022-12-07T09:25:46;65506.41;;;0.81;100.00
46614;BME280;32338;50.430;6.806;2022-12-07T09:28:14;65504.53;;;0.77;100.00
46614;BME280;32338;50.430;6.806;2022-12-07T09:30:45;65503.06;;;0.78;100.00
46614;BME280;32338;50.430;6.806;2022-12-07T09:33:11;65509.34;;;0.79;100.00
46614;BME280;32338;50.430;6.806;2022-12-07T09:35:44;65523.19;;;0.96;100.00
46614;BME280;32338;50.430;6.806;2022-12-07T09:38:10;65521.47;;;0.95;100.00
46614;BME280;32338;50.430;6.806;2022-12-07T09:40:37;65531.88;;;1.02;100.00
46614;BME280;32338;50.430;6.806;2022-12-07T09:43:04;65540.06;;;1.07;100.00
46614;BME280;32338;50.430;6.806;2022-12-07T09:45:34;65527.63;;;1.01;100.00
46614;BME280;32338;50.430;6.806;2022-12-07T09:48:03;65533.56;;;1.04;100.00
46614;BME280;32338;50.430;6.806;2022-12-07T09:50:30;65540.69;;;1.15;100.00
46614;BME280;32338;50.430;6.806;2022-12-07T09:53:08;65553.69;;;1.22;100.00
46614;BME280;32338;50.430;6.806;2022-12-07T09:55:36;65562.25;;;1.33;100.00
46614;BME280;32338;50.430;6.806;2022-12-07T09:58:03;65550.34;;;1.19;100.00
46614;BME280;32338;50.430;6.806;2022-12-07T10:00:30;65548.88;;;1.20;100.00
46614;BME280;32338;50.430;6.806;2022-12-07T10:02:59;65546.06;;;1.18;100.00
46614;BME280;32338;50.430;6.806;2022-12-07T10:05:29;65547.53;;;1.17;100.00
46614;BME280;32338;50.430;6.806;2022-12-07T10:07:56;65551.22;;;1.18;100.00
46614;BME280;32338;50.430;6.806;2022-12-07T10:10:25;65546.06;;;1.18;100.00
46614;BME280;32338;50.430;6.806;2022-12-07T10:12:56;65548.09;;;1.17;100.00
46614;BME280;32338;50.430;6.806;2022-12-07T10:15:22;65546.06;;;1.18;100.00
46614;BME280;32338;50.430;6.806;2022-12-07T10:17:51;65539.94;;;1.12;100.00
46614;BME280;32338;50.430;6.806;2022-12-07T10:20:22;65551.66;;;1.23;100.00
46614;BME280;32338;50.430;6.806;2022-12-07T10:22:58;65559.25;;;1.27;100.00
46614;BME280;32338;50.430;6.806;2022-12-07T10:25:30;65548.50;;;1.22;100.00
46614;BME280;32338;50.430;6.806;2022-12-07T10:28:17;65567.44;;;1.33;100.00
46614;BME280;32338;50.430;6.806;2022-12-07T10:30:50;65567.88;;;1.38;100.00
46614;BME280;32338;50.430;6.806;2022-12-07T10:33:33;65593.91;;;1.59;100.00
46614;BME280;32338;50.430;6.806;2022-12-07T10:36:17;65594.69;;;1.62;100.00
46614;BME280;32338;50.430;6.806;2022-12-07T10:38:46;65617.59;;;1.84;100.00
46614;BME280;32338;50.430;6.806;2022-12-07T10:41:13;65607.53;;;1.74;100.00
46614;BME280;32338;50.430;6.806;2022-12-07T10:43:47;65604.75;;;1.72;100.00
46614;BME280;32338;50.430;6.806;2022-12-07T10:46:27;65593.34;;;1.59;100.00
46614;BME280;32338;50.430;6.806;2022-12-07T10:49:05;65586.88;;;1.55;100.00
46614;BME280;32338;50.430;6.806;2022-12-07T10:51:43;65589.22;;;1.53;100.00
46614;BME280;32338;50.430;6.806;2022-12-07T10:54:19;65580.91;;;1.52;100.00
46614;BME280;32338;50.430;6.806;2022-12-07T10:57:01;65599.84;;;1.62;100.00
46614;BME280;32338;50.430;6.806;2022-12-07T10:59:52;65600.63;;;1.66;100.00
46614;BME280;32338;50.430;6.806;2022-12-07T11:02:29;65596.00;;;1.66;100.00
46614;BME280;32338;50.430;6.806;2022-12-07T11:05:06;65604.75;;;1.72;100.00
46614;BME280;32338;50.430;6.806;2022-12-07T11:07:45;65601.38;;;1.69;100.00
46614;BME280;32338;50.430;6.806;2022-12-07T11:10:19;65603.63;;;1.71;100.00
46614;BME280;32338;50.430;6.806;2022-12-07T11:13:01;65632.69;;;1.98;100.00
46614;BME280;32338;50.430;6.806;2022-12-07T11:15:41;65640.84;;;2.03;100.00
46614;BME280;32338;50.430;6.806;2022-12-07T11:18:16;65644.44;;;2.08;100.00
46614;BME280;32338;50.430;6.806;2022-12-07T11:20:53;65635.91;;;2.05;100.00
46614;BME280;32338;50.430;6.806;2022-12-07T11:23:31;65664.00;;;2.26;100.00
46614;BME280;32338;50.430;6.806;2022-12-07T11:26:08;65678.41;;;2.45;100.00
46614;BME280;32338;50.430;6.806;2022-12-07T11:29:02;65684.50;;;2.43;100.00
46614;BME280;32338;50.430;6.806;2022-12-07T11:31:36;65700.91;;;2.61;100.00
46614;BME280;32338;50.430;6.806;2022-12-07T11:34:08;65720.50;;;2.79;100.00
46614;BME280;32338;50.430;6.806;2022-12-07T11:36:38;65704.59;;;2.62;100.00
46614;BME280;32338;50.430;6.806;2022-12-07T11:39:16;65681.53;;;2.45;100.00
46614;BME280;32338;50.430;6.806;2022-12-07T11:41:48;65663.44;;;2.26;100.00
46614;BME280;32338;50.430;6.806;2022-12-07T11:44:25;65677.78;;;2.37;100.00
46614;BME280;32338;50.430;6.806;2022-12-07T11:46:58;65651.13;;;2.15;100.00
46614;BME280;32338;50.430;6.806;2022-12-07T11:49:37;65652.81;;;2.16;100.00
46614;BME280;32338;50.430;6.806;2022-12-07T11:52:13;65632.47;;;1.95;100.00
46614;BME280;32338;50.430;6.806;2022-12-07T11:54:45;65618.16;;;1.84;100.00
46614;BME280;32338;50.430;6.806;2022-12-07T11:57:16;65605.63;;;1.70;100.00
46614;BME280;32338;50.430;6.806;2022-12-07T11:59:48;65601.75;;;1.67;100.00
46614;BME280;32338;50.430;6.806;2022-12-07T12:02:19;65617.81;;;1.86;100.00
46614;BME280;32338;50.430;6.806;2022-12-07T12:04:52;65660.84;;;2.26;100.00
46614;BME280;32338;50.430;6.806;2022-12-07T12:07:23;65704.25;;;2.64;100.00
46614;BME280;32338;50.430;6.806;2022-12-07T12:09:54;65717.84;;;2.71;100.00
46614;BME280;32338;50.430;6.806;2022-12-07T12:12:35;65732.47;;;2.92;100.00
46614;BME280;32338;50.430;6.806;2022-12-07T12:15:18;65733.16;;;2.88;100.00
46614;BME280;32338;50.430;6.806;2022-12-07T12:18:18;65753.16;;;3.11;100.00
46614;BME280;32338;50.430;6.806;2022-12-07T12:20:55;65758.34;;;3.11;100.00
46614;BME280;32338;50.430;6.806;2022-12-07T12:23:24;65786.88;;;3.37;100.00
46614;BME280;32338;50.430;6.806;2022-12-07T12:25:57;65760.78;;;3.16;100.00
46614;BME280;32338;50.430;6.806;2022-12-07T12:28:28;65775.53;;;3.32;100.00
46614;BME280;32338;50.430;6.806;2022-12-07T12:31:13;65745.09;;;3.01;100.00
46614;BME280;32338;50.430;6.806;2022-12-07T12:33:43;65721.63;;;2.80;100.00
46614;BME280;32338;50.430;6.806;2022-12-07T12:36:19;65732.59;;;2.87;100.00
46614;BME280;32338;50.430;6.806;2022-12-07T12:38:50;65727.75;;;2.85;100.00
46614;BME280;32338;50.430;6.806;2022-12-07T12:41:57;65723.09;;;2.79;100.00
46614;BME280;32338;50.430;6.806;2022-12-07T12:45:04;65720.69;;;2.81;100.00
46614;BME280;32338;50.430;6.806;2022-12-07T12:48:01;65718.59;;;2.74;100.00
46614;BME280;32338;50.430;6.806;2022-12-07T12:50:30;65734.69;;;2.94;100.00
46614;BME280;32338;50.430;6.806;2022-12-07T12:53:16;65727.75;;;2.85;100.00
46614;BME280;32338;50.430;6.806;2022-12-07T12:58:40;65743.78;;;2.98;100.00
46614;BME280;32338;50.430;6.806;2022-12-07T13:01:39;65733.38;;;2.90;100.00
46614;BME280;32338;50.430;6.806;2022-12-07T13:04:48;65708.41;;;2.70;100.00
46614;BME280;32338;50.430;6.806;2022-12-07T13:07:49;65702.25;;;2.64;100.00
46614;BME280;32338;50.430;6.806;2022-12-07T13:10:25;65690.50;;;2.53;100.00
46614;BME280;32338;50.430;6.806;2022-12-07T13:12:59;65674.28;;;2.38;100.00
46614;BME280;32338;50.430;6.806;2022-12-07T13:15:35;65686.38;;;2.47;100.00
46614;BME280;32338;50.430;6.806;2022-12-07T13:18:14;65688.63;;;2.49;100.00
46614;BME280;32338;50.430;6.806;2022-12-07T13:20:53;65681.69;;;2.40;100.00